Saturday, June 25, 2016, 8:53 PM EDT

KSBY, Salisbury-wicomico Cty Reg

Location: Salisbury, MD, United States Lat: 38.333
Local Time: 8:53 PM EDT ( 0:53 GMT) Lon: -75.5
Time Zone: US/Eastern Elev: 52 ft

Show me the last for .
Show Decoded

2016-06-25 19:54 METAR KSBY 252354Z 13004KT 10SM CLR 23/17 A3018 RMK AO2 SLP220 T02280172 10267
                 20228 53005 =
2016-06-25 18:54 METAR KSBY 252254Z 06008KT 10SM CLR 24/14 A3017 RMK AO2 SLP219 T02440139 =
2016-06-25 17:54 METAR KSBY 252154Z 05010KT 10SM CLR 26/14 A3016 RMK AO2 SLP216 T02610139 =
2016-06-25 16:54 METAR KSBY 252054Z 06007KT 10SM CLR 26/16 A3016 RMK AO2 SLP216 T02610156 50000 =
2016-06-25 15:54 METAR KSBY 251954Z 03010KT 10SM CLR 26/17 A3017 RMK AO2 SLP220 T02610167 =
2016-06-25 14:54 METAR KSBY 251854Z 03012KT 10SM CLR 26/16 A3017 RMK AO2 SLP218 T02610161 =
2016-06-25 13:54 METAR KSBY 251754Z 04010KT 10SM CLR 26/17 A3016 RMK AO2 SLP216 T02610167 10261
                 20211 57001 =
2016-06-25 12:54 METAR KSBY 251654Z 05009G17KT 10SM CLR 25/18 A3016 RMK AO2 SLP216 T02500183 =
2016-06-25 11:54 METAR KSBY 251554Z 02009KT 10SM FEW027 25/18 A3017 RMK AO2 SLP217 T02500183 =
2016-06-25 10:54 METAR KSBY 251454Z 06010KT 10SM SCT023 24/18 A3017 RMK AO2 SLP217 T02440178
                 52008 =
2016-06-25 09:54 METAR KSBY 251354Z 06012KT 10SM SCT019 23/18 A3015 RMK AO2 SLP213 T02280178 =
2016-06-25 09:52 METAR KSBY 251352Z 06010KT 10SM SCT019 23/18 A3015 RMK AO2 =
2016-06-25 08:54 METAR KSBY 251254Z 05009KT 10SM BKN017 22/18 A3014 RMK AO2 SLP209 T02170178 =
2016-06-25 08:29 METAR KSBY 251229Z 07011KT 10SM BKN015 22/18 A3014 RMK AO2 T02220183 =
2016-06-25 07:54 METAR KSBY 251154Z 04010KT 10SM BKN011 21/18 A3013 RMK AO2 SLP203 T02060183
                 10206 20200 53017 =
2016-06-25 07:42 METAR KSBY 251142Z 05009KT 10SM BKN011 21/18 A3012 RMK AO2 T02060183 =
2016-06-25 07:21 METAR KSBY 251121Z 03008KT 10SM BKN009 21/19 A3011 RMK AO2 CIG 008V013 T02060189
                 =
2016-06-25 06:54 METAR KSBY 251054Z 03006KT 8SM OVC010 20/19 A3011 RMK AO2 CIG 006V014 SLP197
                 T02000189 =
2016-06-25 06:11 METAR KSBY 251011Z 03008KT 6SM BR BKN007 OVC013 20/19 A3009 RMK AO2 CIG 005V010
                 T02000189 =
2016-06-25 06:04 METAR KSBY 251004Z 02006KT 5SM BR BKN004 OVC013 20/19 A3009 RMK AO2 T02000189 =
2016-06-25 05:54 METAR KSBY 250954Z 02005KT 5SM BR SCT004 OVC013 20/19 A3008 RMK AO2 SLP189
                 T02000189 =
2016-06-25 04:54 METAR KSBY 250854Z AUTO 02005KT 4SM BR OVC004 20/19 A3007 RMK AO2 SLP186
                 T02000194 53008 =
2016-06-25 04:40 METAR KSBY 250840Z AUTO 02005KT 2 1/2SM BR OVC004 20/19 A3007 RMK AO2 T02000194
                 =
2016-06-25 03:54 METAR KSBY 250754Z AUTO 04009KT 5SM BR OVC005 20/19 A3006 RMK AO2 SLP180
                 T02000194 =
2016-06-25 02:54 METAR KSBY 250654Z AUTO 04009KT 8SM OVC005 20/19 A3005 RMK AO2 SLP177 T02000189
                 =
2016-06-25 02:06 METAR KSBY 250606Z AUTO 04006KT 8SM OVC006 21/19 A3005 RMK AO2 CIG 003V009
                 T02060194 =
2016-06-25 01:54 METAR KSBY 250554Z AUTO 05007KT 6SM BR OVC004 21/19 A3005 RMK AO2 CIG 003V007
                 SLP178 60000 T02060194 10222 20206 50001 =
2016-06-25 01:27 METAR KSBY 250527Z AUTO 03006KT 5SM BR OVC004 21/20 A3005 RMK AO2 T02060200 =
2016-06-25 00:54 METAR KSBY 250454Z AUTO 04006KT 7SM OVC005 21/20 A3005 RMK AO2 SLP178 T02110200
                 402940200 =
2016-06-25 00:31 METAR KSBY 250431Z AUTO 05003KT 7SM BKN005 BKN014 OVC020 21/20 A3006 RMK AO2
                 T02110200 =
2016-06-25 00:23 METAR KSBY 250423Z AUTO 09004KT 7SM SCT005 BKN015 OVC021 21/21 A3005 RMK AO2
                 T02110206 =
2016-06-24 23:54 METAR KSBY 250354Z AUTO 06005KT 3SM BR OVC004 21/21 A3005 RMK AO2 SLP179
                 T02060206 =
2016-06-24 23:27 METAR KSBY 250327Z AUTO 06008KT 4SM BR OVC004 21/21 A3004 RMK AO2 T02110206 =
2016-06-24 22:54 METAR KSBY 250254Z AUTO 05008KT 5SM BR OVC005 21/21 A3005 RMK AO2 RAB10E20
                 SLP176 P0000 60000 T02110206 53013 =
2016-06-24 21:54 METAR KSBY 250154Z 05006KT 8SM OVC006 22/21 A3004 RMK AO2 SLP174 T02220206 =
2016-06-24 20:54 METAR KSBY 250054Z 06005KT 9SM BKN009 OVC013 22/21 A3001 RMK AO2 CIG 007V012
                 SLP165 T02170206 =

Support USWX by starting your Amazon purchase here.